Time;durP1;ratioP1;P1;durP2;ratioP2;P2;SDS_P1;SDS_P2;PMS_P1;PMS_P2;Temp;Humidity;BMP_temperature;BMP_pressure;BME280_temperature;BME280_humidity;BME280_pressure;Samples;Min_cycle;Max_cycle;Signal;HPM_P1;HPM_P2
2023/11/04 11:41:03;;;;;;;2.90;1.60;;;;;;;11.19;57.23;94718.73;105682;1298;556453;-72
2023/11/04 11:43:35;;;;;;;4.40;1.50;;;;;;;11.03;57.79;94713.89;107509;1287;142550;-72
2023/11/04 11:46:08;;;;;;;4.20;1.60;;;;;;;10.99;57.71;94710.80;107695;1281;24326;-73
2023/11/04 11:48:43;;;;;;;3.00;1.40;;;;;;;10.90;57.75;94704.04;107746;1287;22542;-73
2023/11/04 11:51:16;;;;;;;3.30;1.70;;;;;;;10.80;57.81;94699.91;107723;1287;22536;-73
2023/11/04 11:53:49;;;;;;;2.00;1.40;;;;;;;10.65;57.77;94700.90;107730;1286;22576;-73
2023/11/04 11:56:20;;;;;;;2.60;1.40;;;;;;;10.59;58.07;94700.25;107752;1286;22804;-73
2023/11/04 11:58:52;;;;;;;2.00;1.60;;;;;;;10.58;58.22;94695.89;107675;1287;22657;-74
2023/11/04 12:01:25;;;;;;;3.00;1.50;;;;;;;10.57;58.25;94693.65;107713;1287;22536;-73
2023/11/04 12:03:59;;;;;;;4.90;1.80;;;;;;;10.54;58.32;94693.52;107736;1287;23212;-73
2023/11/04 12:06:32;;;;;;;2.30;1.50;;;;;;;10.55;58.62;94693.11;108551;1275;22546;-73
2023/11/04 12:09:05;;;;;;;2.40;1.50;;;;;;;10.58;58.63;94690.34;108563;1275;22543;-72
2023/11/04 12:11:38;;;;;;;3.80;1.70;;;;;;;10.51;58.66;94694.48;108556;1269;22531;-73
2023/11/04 12:14:10;;;;;;;3.40;1.80;;;;;;;10.42;58.89;94693.18;108550;1269;26508;-73
2023/11/04 12:16:42;;;;;;;2.40;1.70;;;;;;;10.37;58.98;94694.73;108613;1275;22540;-73
2023/11/04 12:19:15;;;;;;;2.80;1.70;;;;;;;10.34;59.15;94689.88;108643;1275;22523;-73
2023/11/04 12:21:48;;;;;;;4.00;1.80;;;;;;;10.39;59.14;94689.73;108523;1275;24187;-73
2023/11/04 12:24:20;;;;;;;3.00;1.70;;;;;;;10.42;59.42;94687.73;108535;1269;25422;-73
2023/11/04 12:26:54;;;;;;;4.50;2.20;;;;;;;10.45;59.44;94688.61;108626;1275;22528;-72
2023/11/04 12:29:30;;;;;;;3.00;1.70;;;;;;;10.41;59.51;94687.86;108583;1275;22541;-73
2023/11/04 12:32:03;;;;;;;5.50;2.00;;;;;;;10.48;59.58;94685.60;108580;1275;22530;-72
2023/11/04 12:34:35;;;;;;;3.40;2.00;;;;;;;10.54;59.84;94678.77;108667;1274;25245;-73
2023/11/04 12:37:08;;;;;;;5.30;2.30;;;;;;;10.77;60.07;94679.96;108638;1275;22539;-73
2023/11/04 12:39:40;;;;;;;3.20;2.10;;;;;;;11.00;59.88;94671.59;108591;1267;22409;-73
2023/11/04 12:42:12;;;;;;;2.80;1.80;;;;;;;11.29;60.06;94672.52;108627;1274;22538;-73
2023/11/04 12:44:44;;;;;;;3.20;1.80;;;;;;;11.29;58.82;94672.02;108626;1273;22533;-73
2023/11/04 12:47:16;;;;;;;4.60;2.20;;;;;;;11.18;58.58;94669.02;108598;1272;24279;-73
2023/11/04 12:49:48;;;;;;;3.50;1.90;;;;;;;11.20;59.00;94665.60;108585;1274;25376;-73
2023/11/04 12:52:21;;;;;;;2.80;1.90;;;;;;;11.25;58.55;94667.04;108619;1274;24196;-73
2023/11/04 12:54:53;;;;;;;5.90;2.40;;;;;;;11.13;58.61;94668.02;108618;1273;24259;-73
2023/11/04 12:57:26;;;;;;;3.00;2.10;;;;;;;10.98;58.57;94672.41;108626;1274;22520;-73
2023/11/04 12:59:58;;;;;;;4.80;2.70;;;;;;;10.81;58.75;94669.65;108586;1275;25278;-73
2023/11/04 13:02:31;;;;;;;5.40;2.70;;;;;;;10.68;59.32;94671.70;108607;1272;22524;-73
2023/11/04 13:05:04;;;;;;;4.70;3.00;;;;;;;10.68;59.60;94671.69;108614;1272;22555;-73
2023/11/04 13:07:37;;;;;;;6.50;2.50;;;;;;;10.62;59.78;94672.85;108623;1270;22522;-73
2023/11/04 13:10:11;;;;;;;4.00;2.50;;;;;;;10.57;60.11;94668.76;108637;1267;22560;-73
2023/11/04 13:12:45;;;;;;;3.90;2.50;;;;;;;10.58;60.30;94673.27;108666;1274;25284;-72
2023/11/04 13:15:18;;;;;;;4.40;2.30;;;;;;;10.49;60.33;94673.61;108655;1273;22627;-72
2023/11/04 13:17:51;;;;;;;6.60;3.20;;;;;;;10.53;60.67;94674.05;108656;1273;23242;-73
2023/11/04 13:20:24;;;;;;;4.20;2.60;;;;;;;10.81;61.62;94672.60;108655;1269;24972;-73
2023/11/04 13:22:58;;;;;;;4.50;2.90;;;;;;;11.15;61.07;94675.05;108656;1272;22551;-73
2023/11/04 13:25:31;;;;;;;6.60;3.20;;;;;;;11.31;60.74;94675.80;108643;1271;25281;-73
2023/11/04 13:28:05;;;;;;;6.70;3.10;;;;;;;11.43;59.82;94676.55;108616;1275;22535;-73
2023/11/04 13:30:38;;;;;;;6.10;2.90;;;;;;;11.29;59.21;94677.92;108649;1274;22527;-73
2023/11/04 13:33:10;;;;;;;5.70;3.00;;;;;;;11.31;59.43;94672.48;108591;1275;22550;-73
2023/11/04 13:35:43;;;;;;;5.80;2.80;;;;;;;11.32;59.13;94669.98;108620;1263;22533;-73
2023/11/04 13:38:15;;;;;;;5.70;2.90;;;;;;;11.25;59.10;94665.36;108706;1275;22535;-72
2023/11/04 13:40:48;;;;;;;4.10;2.60;;;;;;;11.28;59.55;94661.61;108604;1275;22519;-73
2023/11/04 13:43:21;;;;;;;4.90;3.10;;;;;;;11.29;59.39;94659.82;108649;1274;22542;-73
2023/11/04 13:45:54;;;;;;;3.80;2.50;;;;;;;11.13;59.23;94661.48;108669;1274;22539;-72
2023/11/04 13:48:28;;;;;;;4.50;2.80;;;;;;;10.97;59.36;94662.98;108621;1272;23076;-73
2023/11/04 13:51:01;;;;;;;4.50;3.20;;;;;;;10.81;59.49;94668.95;108653;1274;22601;-72
2023/11/04 13:53:34;;;;;;;6.50;3.80;;;;;;;10.61;59.60;94669.34;108573;1275;22533;-72
2023/11/04 13:56:07;;;;;;;9.60;5.00;;;;;;;10.54;59.98;94665.43;108628;1272;22521;-72
2023/11/04 13:58:40;;;;;;;7.20;3.30;;;;;;;10.51;60.31;94662.09;108680;1274;22536;-72
2023/11/04 14:01:13;;;;;;;6.30;3.60;;;;;;;10.45;60.42;94652.88;108632;1272;34890;-72
2023/11/04 14:03:46;;;;;;;5.00;2.90;;;;;;;10.35;60.57;94646.86;108675;1272;22533;-72
2023/11/04 14:06:18;;;;;;;6.20;3.40;;;;;;;10.31;60.94;94645.73;108620;1274;22530;-72
2023/11/04 14:08:51;;;;;;;6.40;3.40;;;;;;;10.30;61.38;94648.63;108625;1269;22763;-72
2023/11/04 14:11:28;;;;;;;7.30;3.80;;;;;;;10.30;61.64;94639.84;108604;1274;25349;-72
2023/11/04 14:14:00;;;;;;;7.50;3.80;;;;;;;10.27;61.81;94638.23;108586;1272;22528;-72
2023/11/04 14:16:32;;;;;;;7.60;3.60;;;;;;;10.14;61.69;94635.75;108629;1270;22525;-72
2023/11/04 14:19:04;;;;;;;8.00;3.60;;;;;;;9.98;62.01;94631.70;108626;1271;22536;-72
2023/11/04 14:21:36;;;;;;;9.10;4.40;;;;;;;9.88;62.47;94627.50;108609;1272;27585;-72
2023/11/04 14:24:10;;;;;;;11.10;5.30;;;;;;;9.81;62.71;94624.33;108582;1275;25301;-72
2023/11/04 14:26:42;;;;;;;12.10;6.30;;;;;;;9.72;63.01;94623.27;108648;1274;25369;-73
2023/11/04 14:29:14;;;;;;;10.10;5.90;;;;;;;9.64;63.15;94627.34;108627;1272;22524;-72
2023/11/04 14:31:46;;;;;;;11.60;5.70;;;;;;;9.52;63.31;94630.56;108557;1270;22564;-71
2023/11/04 14:34:18;;;;;;;10.90;5.30;;;;;;;9.44;63.78;94632.61;108626;1274;22532;-72
2023/11/04 14:36:50;;;;;;;8.50;4.50;;;;;;;9.37;63.87;94636.80;108617;1275;25495;-72
2023/11/04 14:39:22;;;;;;;9.90;4.60;;;;;;;9.29;64.00;94637.99;108663;1274;22538;-73
2023/11/04 14:41:54;;;;;;;8.00;4.70;;;;;;;9.20;64.28;94637.56;108646;1274;24491;-72
2023/11/04 14:44:27;;;;;;;8.90;4.70;;;;;;;9.16;64.66;94638.70;108594;1274;22541;-72
2023/11/04 14:47:00;;;;;;;9.10;5.00;;;;;;;9.13;65.01;94630.70;108618;1275;22642;-72
2023/11/04 14:49:32;;;;;;;10.70;4.90;;;;;;;9.11;65.25;94628.13;108663;1274;23252;-72
2023/11/04 14:52:03;;;;;;;9.30;5.30;;;;;;;9.08;65.39;94630.35;108610;1274;22562;-72
2023/11/04 14:54:36;;;;;;;9.90;5.50;;;;;;;8.98;65.57;94621.02;108656;1274;22508;-72
2023/11/04 14:57:09;;;;;;;9.90;5.60;;;;;;;8.88;65.69;94620.73;108599;1275;22526;-72
2023/11/04 14:59:41;;;;;;;10.10;5.40;;;;;;;8.80;65.91;94620.39;108628;1275;25301;-72
2023/11/04 15:02:13;;;;;;;13.50;6.40;;;;;;;8.75;66.20;94617.90;108607;1275;25252;-72
2023/11/04 15:04:46;;;;;;;12.10;7.30;;;;;;;8.63;66.13;94608.36;108651;1274;22859;-72
2023/11/04 15:07:18;;;;;;;12.60;7.60;;;;;;;8.53;66.32;94615.70;108626;1275;22537;-73
2023/11/04 15:09:51;;;;;;;12.90;7.50;;;;;;;8.41;66.39;94614.85;108638;1267;22522;-72
2023/11/04 15:12:23;;;;;;;14.50;8.50;;;;;;;8.31;66.81;94610.18;108602;1274;22535;-72
2023/11/04 15:14:57;;;;;;;13.70;9.40;;;;;;;8.28;67.15;94610.31;108631;1274;22524;-72
2023/11/04 15:17:29;;;;;;;15.60;9.30;;;;;;;8.13;66.92;94612.48;108647;1269;22637;-72
2023/11/04 15:20:04;;;;;;;13.70;8.10;;;;;;;7.87;67.22;94614.11;108574;1270;22754;-72
2023/11/04 15:22:36;;;;;;;14.20;8.30;;;;;;;7.72;67.69;94616.20;108653;1275;22525;-72
2023/11/04 15:25:10;;;;;;;18.10;12.10;;;;;;;7.68;68.14;94616.88;108609;1269;22539;-72
2023/11/04 15:27:43;;;;;;;11.70;6.70;;;;;;;7.59;68.10;94615.03;108643;1275;22524;-72
2023/11/04 15:30:16;;;;;;;9.80;5.90;;;;;;;7.42;68.44;94618.63;108659;1274;22477;-72
2023/11/04 15:32:49;;;;;;;9.20;6.00;;;;;;;7.31;69.07;94615.34;108581;1274;22539;-72
2023/11/04 15:35:22;;;;;;;12.60;6.40;;;;;;;7.27;69.26;94613.71;108606;1275;22520;-72
2023/11/04 15:37:53;;;;;;;13.80;6.90;;;;;;;7.14;69.56;94611.38;108709;1273;24896;-72
2023/11/04 15:40:26;;;;;;;20.10;11.60;;;;;;;7.07;70.11;94609.16;108575;1270;23728;-72
2023/11/04 15:42:57;;;;;;;22.50;13.60;;;;;;;6.98;70.32;94606.33;108643;1272;25412;-73
2023/11/04 15:45:29;;;;;;;19.00;12.40;;;;;;;6.83;70.61;94608.52;108695;1255;22547;-72
2023/11/04 15:48:00;;;;;;;18.80;13.00;;;;;;;6.83;71.19;94609.83;108700;1275;23838;-72
2023/11/04 15:50:33;;;;;;;15.10;10.30;;;;;;;6.84;71.31;94607.16;108640;1275;22607;-73
2023/11/04 15:53:05;;;;;;;12.50;7.50;;;;;;;6.76;71.10;94608.21;108695;1274;22586;-72
2023/11/04 15:55:37;;;;;;;12.60;7.20;;;;;;;6.63;71.40;94606.20;108684;1275;22619;-72
2023/11/04 15:58:09;;;;;;;10.90;6.50;;;;;;;6.56;71.68;94599.19;108669;1274;22520;-72
2023/11/04 16:00:40;;;;;;;13.00;8.30;;;;;;;6.55;72.04;94594.63;108659;1274;22524;-72
2023/11/04 16:03:12;;;;;;;16.00;11.10;;;;;;;6.52;71.77;94596.50;108656;1272;22640;-72
2023/11/04 16:05:44;;;;;;;13.90;9.40;;;;;;;6.26;71.85;94592.96;108614;1272;22531;-72
2023/11/04 16:08:16;;;;;;;26.30;17.90;;;;;;;6.13;72.41;94591.33;108633;1275;22525;-72
2023/11/04 16:10:47;;;;;;;20.50;13.70;;;;;;;5.95;72.24;94585.95;108603;1274;22543;-72
2023/11/04 16:13:18;;;;;;;24.10;17.90;;;;;;;5.77;72.83;94587.70;108627;1274;22535;-72
2023/11/04 16:15:49;;;;;;;20.40;15.00;;;;;;;5.65;73.01;94582.29;108642;1274;22551;-72
2023/11/04 16:18:22;;;;;;;16.70;10.90;;;;;;;5.54;73.57;94580.23;108606;1275;23013;-72
2023/11/04 16:20:54;;;;;;;11.40;8.30;;;;;;;5.55;74.13;94580.45;108592;1274;22570;-72
2023/11/04 16:23:25;;;;;;;11.80;7.00;;;;;;;5.58;74.20;94576.88;108629;1262;22536;-72
2023/11/04 16:25:57;;;;;;;7.50;4.50;;;;;;;5.52;74.39;94574.79;108650;1256;22526;-72
2023/11/04 16:28:29;;;;;;;10.30;6.70;;;;;;;5.44;74.33;94577.59;108611;1275;22619;-72
2023/11/04 16:31:01;;;;;;;15.90;10.70;;;;;;;5.37;74.99;94575.22;108558;1269;22537;-72
2023/11/04 16:33:36;;;;;;;21.00;14.60;;;;;;;5.31;74.91;94570.66;108572;1272;22698;-72
2023/11/04 16:36:12;;;;;;;13.70;9.70;;;;;;;5.28;75.54;94567.78;108674;1275;24256;-72
2023/11/04 16:38:44;;;;;;;16.50;11.20;;;;;;;5.26;75.29;94563.07;108635;1273;22549;-72
2023/11/04 16:41:15;;;;;;;18.00;12.80;;;;;;;5.17;75.54;94561.17;108527;1275;22525;-72
2023/11/04 16:43:47;;;;;;;17.30;11.60;;;;;;;5.03;75.34;94561.61;108591;1275;22604;-72
2023/11/04 16:46:22;;;;;;;11.00;7.20;;;;;;;4.83;75.47;94561.47;108585;1273;27904;-72
2023/11/04 16:48:55;;;;;;;9.10;5.50;;;;;;;4.76;76.14;94565.09;108567;1275;22590;-72
2023/11/04 16:51:26;;;;;;;32.20;24.10;;;;;;;4.86;77.12;94559.30;108607;1274;25416;-72
2023/11/04 16:53:58;;;;;;;11.10;7.20;;;;;;;4.96;76.89;94555.57;108655;1252;22587;-72
2023/11/04 16:56:30;;;;;;;20.00;14.90;;;;;;;4.97;76.89;94552.02;108635;1275;22536;-72
2023/11/04 16:59:04;;;;;;;13.90;9.60;;;;;;;4.99;76.97;94549.66;108660;1275;22557;-73
2023/11/04 17:01:35;;;;;;;12.40;8.80;;;;;;;4.98;76.93;94544.90;108634;1274;22597;-72
2023/11/04 17:04:08;;;;;;;10.80;6.30;;;;;;;4.91;76.76;94541.94;108622;1272;22519;-72
2023/11/04 17:06:41;;;;;;;9.20;5.60;;;;;;;4.79;76.70;94540.23;108651;1274;22760;-72
2023/11/04 17:09:14;;;;;;;20.60;13.80;;;;;;;4.74;77.28;94538.95;108687;1275;22527;-72
2023/11/04 17:11:46;;;;;;;15.60;9.90;;;;;;;4.80;77.50;94541.58;108609;1275;22580;-72
2023/11/04 17:14:19;;;;;;;16.10;10.70;;;;;;;4.78;77.53;94532.52;108626;1268;25381;-72
2023/11/04 17:16:51;;;;;;;13.60;9.10;;;;;;;4.72;77.58;94535.10;108653;1273;24221;-72
2023/11/04 17:19:22;;;;;;;46.10;41.30;;;;;;;4.62;77.46;94535.72;108631;1273;22550;-72
2023/11/04 17:21:53;;;;;;;57.10;51.20;;;;;;;4.57;78.11;94535.50;108608;1275;22679;-72
2023/11/04 17:24:25;;;;;;;100.20;90.10;;;;;;;4.60;78.20;94539.34;108643;1274;22812;-72
2023/11/04 17:26:56;;;;;;;39.00;33.90;;;;;;;4.61;78.44;94535.11;108639;1274;25365;-71
2023/11/04 17:29:28;;;;;;;57.40;51.40;;;;;;;4.59;78.40;94529.01;108650;1273;22527;-72
2023/11/04 17:31:59;;;;;;;32.00;28.60;;;;;;;4.55;78.66;94526.88;108532;1275;24218;-72
2023/11/04 17:34:31;;;;;;;17.60;11.40;;;;;;;4.61;78.92;94521.47;108638;1273;22531;-72
2023/11/04 17:37:03;;;;;;;30.50;20.20;;;;;;;4.70;79.35;94505.70;108677;1274;22551;-72
2023/11/04 17:39:36;;;;;;;30.00;15.70;;;;;;;4.79;79.22;94497.08;108639;1273;22534;-72
2023/11/04 17:42:09;;;;;;;15.60;8.80;;;;;;;4.91;79.53;94494.84;108596;1275;22555;-72
2023/11/04 17:44:40;;;;;;;34.60;17.00;;;;;;;4.97;79.21;94496.14;108701;1274;22632;-72
2023/11/04 17:47:12;;;;;;;32.60;16.10;;;;;;;4.95;79.08;94492.52;108624;1275;24390;-72
2023/11/04 17:49:44;;;;;;;17.80;10.00;;;;;;;4.94;79.20;94488.95;108676;1274;22584;-72
2023/11/04 17:52:16;;;;;;;10.70;5.90;;;;;;;4.95;79.49;94491.92;108622;1275;22568;-73
2023/11/04 17:54:48;;;;;;;10.30;6.50;;;;;;;4.93;79.56;94485.50;108628;1272;22528;-72
2023/11/04 17:57:21;;;;;;;10.50;6.20;;;;;;;4.95;79.85;94478.34;108648;1274;22524;-72
2023/11/04 17:59:52;;;;;;;16.40;9.20;;;;;;;4.99;79.99;94474.88;108635;1273;22563;-72
2023/11/04 18:02:24;;;;;;;12.80;6.40;;;;;;;4.98;79.91;94475.58;108630;1274;22527;-72
2023/11/04 18:04:56;;;;;;;9.90;5.20;;;;;;;4.91;79.81;94474.20;108618;1275;22528;-72
2023/11/04 18:07:29;;;;;;;11.20;6.50;;;;;;;4.83;80.07;94470.48;108606;1275;25278;-72
2023/11/04 18:10:01;;;;;;;10.80;5.50;;;;;;;4.79;80.32;94470.88;108627;1274;26112;-72
2023/11/04 18:12:33;;;;;;;6.50;3.70;;;;;;;4.65;80.08;94466.84;108603;1274;22536;-72
2023/11/04 18:15:05;;;;;;;9.30;4.70;;;;;;;4.54;80.33;94460.19;108622;1267;22588;-72
2023/11/04 18:17:38;;;;;;;51.40;42.10;;;;;;;4.47;80.53;94454.13;108641;1268;25138;-72
2023/11/04 18:20:11;;;;;;;11.60;7.70;;;;;;;4.47;80.78;94456.95;108640;1270;23128;-73
2023/11/04 18:22:43;;;;;;;8.50;5.30;;;;;;;4.43;80.51;94457.35;108738;1275;24265;-72
2023/11/04 18:25:15;;;;;;;7.20;4.20;;;;;;;4.31;80.40;94457.75;108667;1267;22562;-72
2023/11/04 18:27:48;;;;;;;8.60;5.40;;;;;;;4.29;81.17;94458.78;108616;1271;22586;-73
2023/11/04 18:30:20;;;;;;;9.50;6.20;;;;;;;4.35;81.33;94445.13;108610;1274;22551;-73
2023/11/04 18:32:53;;;;;;;15.10;9.60;;;;;;;4.44;81.82;94444.11;108567;1273;22546;-72
2023/11/04 18:35:27;;;;;;;13.20;8.30;;;;;;;4.46;81.16;94445.61;108672;1267;23178;-72
2023/11/04 18:38:00;;;;;;;12.00;7.80;;;;;;;4.31;81.10;94445.04;108614;1273;22707;-72
2023/11/04 18:40:34;;;;;;;14.50;8.00;;;;;;;4.41;81.87;94449.32;108652;1275;22606;-72
2023/11/04 18:43:06;;;;;;;14.00;8.90;;;;;;;4.48;81.95;94445.91;108523;1275;24330;-72
2023/11/04 18:45:45;;;;;;;12.50;7.40;;;;;;;4.56;82.08;94445.94;108570;1275;22529;-72
2023/11/04 18:48:18;;;;;;;14.60;9.30;;;;;;;4.60;82.04;94448.32;108567;1275;22540;-72
2023/11/04 18:50:50;;;;;;;12.40;7.50;;;;;;;4.59;82.06;94443.51;108599;1274;23048;-72
2023/11/04 18:53:21;;;;;;;11.00;7.00;;;;;;;4.59;81.93;94443.25;108632;1275;25361;-72
2023/11/04 18:55:53;;;;;;;12.90;7.10;;;;;;;4.57;81.81;94439.88;108617;1275;24226;-72
2023/11/04 18:58:24;;;;;;;13.00;7.70;;;;;;;4.54;81.89;94432.66;108627;1275;24178;-72
2023/11/04 19:00:56;;;;;;;14.50;7.90;;;;;;;4.51;81.93;94435.48;108626;1273;25334;-72
2023/11/04 19:03:27;;;;;;;13.30;7.40;;;;;;;4.46;81.82;94430.33;108643;1267;22541;-72
2023/11/04 19:06:00;;;;;;;15.50;8.70;;;;;;;4.39;81.79;94436.05;108693;1268;28020;-72
2023/11/04 19:08:33;;;;;;;12.50;8.10;;;;;;;4.35;82.10;94440.88;108633;1273;22593;-72
2023/11/04 19:11:05;;;;;;;13.90;9.00;;;;;;;4.32;82.17;94442.09;108648;1273;22668;-72
2023/11/04 19:13:36;;;;;;;12.40;6.50;;;;;;;4.30;81.97;94433.68;108670;1272;22639;-72
2023/11/04 19:16:09;;;;;;;9.90;5.70;;;;;;;4.34;82.56;94434.96;108658;1274;25401;-72
2023/11/04 19:18:40;;;;;;;11.30;6.30;;;;;;;4.44;82.88;94441.06;108637;1275;22544;-72
2023/11/04 19:21:13;;;;;;;8.60;5.20;;;;;;;4.50;82.75;94445.94;108611;1275;22518;-72
2023/11/04 19:23:45;;;;;;;8.50;4.60;;;;;;;4.62;83.15;94443.13;108614;1273;22531;-72
2023/11/04 19:26:16;;;;;;;7.80;4.00;;;;;;;4.74;83.19;94441.52;108660;1274;24481;-73
2023/11/04 19:28:48;;;;;;;9.20;5.10;;;;;;;4.85;83.26;94447.66;108618;1257;24222;-72
2023/11/04 19:31:21;;;;;;;9.20;5.20;;;;;;;4.90;83.07;94440.92;108604;1273;22553;-72
2023/11/04 19:33:53;;;;;;;9.10;5.20;;;;;;;4.90;83.02;94439.93;108609;1273;25496;-72
2023/11/04 19:36:24;;;;;;;12.50;6.40;;;;;;;4.85;82.99;94442.30;108601;1275;22534;-72
2023/11/04 19:38:56;;;;;;;9.10;5.50;;;;;;;4.79;83.10;94440.45;108604;1275;22528;-72
2023/11/04 19:41:28;;;;;;;11.30;6.30;;;;;;;4.74;82.86;94443.25;108635;1273;22528;-72
2023/11/04 19:44:00;;;;;;;9.60;5.50;;;;;;;4.70;83.11;94438.84;108667;1275;22545;-73
2023/11/04 19:46:33;;;;;;;9.90;5.10;;;;;;;4.72;83.35;94436.63;108657;1269;24368;-73
2023/11/04 19:49:06;;;;;;;10.80;5.90;;;;;;;4.74;83.37;94448.08;108593;1273;22540;-72
2023/11/04 19:51:37;;;;;;;11.30;6.90;;;;;;;4.74;83.36;94444.52;108605;1274;22552;-72
2023/11/04 19:54:09;;;;;;;11.90;7.40;;;;;;;4.74;83.49;94439.48;108597;1275;22590;-72
2023/11/04 19:56:41;;;;;;;13.00;7.30;;;;;;;4.72;83.41;94428.55;108607;1274;25272;-72
2023/11/04 19:59:13;;;;;;;12.50;7.40;;;;;;;4.70;83.53;94425.08;108643;1275;22523;-72
2023/11/04 20:01:47;;;;;;;12.80;7.30;;;;;;;4.68;83.66;94414.83;108672;1274;22611;-72
2023/11/04 20:04:19;;;;;;;12.90;8.00;;;;;;;4.70;83.69;94409.91;108639;1274;22525;-72
2023/11/04 20:06:51;;;;;;;14.40;8.30;;;;;;;4.69;83.73;94407.36;108662;1273;22547;-72
2023/11/04 20:09:26;;;;;;;13.90;7.80;;;;;;;4.64;83.59;94408.45;108655;1263;22543;-72
2023/11/04 20:12:01;;;;;;;16.30;8.60;;;;;;;4.59;83.85;94411.55;108655;1266;22523;-72
2023/11/04 20:14:37;;;;;;;13.90;8.50;;;;;;;4.56;83.97;94411.25;108634;1274;22530;-72
2023/11/04 20:17:09;;;;;;;12.80;8.50;;;;;;;4.56;84.20;94407.94;108714;1267;22583;-72
2023/11/04 20:19:44;;;;;;;13.30;7.70;;;;;;;4.57;84.30;94407.14;108606;1275;22536;-72
2023/11/04 20:22:18;;;;;;;14.80;8.20;;;;;;;4.56;84.34;94397.60;108576;1273;27694;-72
2023/11/04 20:24:51;;;;;;;12.00;6.40;;;;;;;4.54;84.42;94396.23;108651;1273;24461;-73
2023/11/04 20:27:24;;;;;;;12.70;7.60;;;;;;;4.52;84.44;94394.92;108565;1274;22518;-73
2023/11/04 20:29:57;;;;;;;11.90;7.50;;;;;;;4.54;84.71;94380.54;108612;1273;25255;-72
2023/11/04 20:32:30;;;;;;;12.90;6.60;;;;;;;4.56;84.80;94380.86;108582;1273;22553;-72
2023/11/04 20:35:02;;;;;;;13.50;8.40;;;;;;;4.58;84.86;94380.45;108655;1274;23240;-73
2023/11/04 20:37:35;;;;;;;11.00;6.20;;;;;;;4.62;85.25;94386.08;108644;1273;22664;-72
2023/11/04 20:40:09;;;;;;;13.90;7.70;;;;;;;4.68;85.40;94382.59;108578;1267;22728;-72
2023/11/04 20:42:41;;;;;;;13.20;7.90;;;;;;;4.72;85.29;94388.80;108593;1275;22527;-72
2023/11/04 20:45:15;;;;;;;16.30;8.10;;;;;;;4.73;85.44;94388.00;108507;1275;22939;-72
2023/11/04 20:47:47;;;;;;;15.50;9.80;;;;;;;4.69;85.42;94386.52;108524;1275;22521;-72
2023/11/04 20:50:19;;;;;;;14.80;8.50;;;;;;;4.63;85.22;94374.66;108543;1275;23189;-72
2023/11/04 20:52:54;;;;;;;14.70;8.60;;;;;;;4.60;85.27;94370.28;108616;1275;22538;-72
2023/11/04 20:55:26;;;;;;;15.10;8.60;;;;;;;4.58;85.17;94368.59;108621;1275;23299;-72
2023/11/04 20:57:57;;;;;;;15.50;9.00;;;;;;;4.55;85.28;94367.65;108628;1274;25379;-72
2023/11/04 21:00:29;;;;;;;16.10;9.10;;;;;;;4.51;85.17;94369.36;108591;1274;24657;-73
2023/11/04 21:03:04;;;;;;;14.80;8.50;;;;;;;4.47;85.30;94367.75;108657;1274;22538;-72
2023/11/04 21:05:37;;;;;;;14.20;8.00;;;;;;;4.47;85.43;94359.79;108626;1270;22580;-72
2023/11/04 21:08:08;;;;;;;16.80;8.80;;;;;;;4.50;85.36;94353.85;108661;1274;23034;-72
2023/11/04 21:10:39;;;;;;;11.10;7.50;;;;;;;4.53;85.43;94348.44;108605;1274;22959;-72
2023/11/04 21:13:11;;;;;;;11.80;6.90;;;;;;;4.58;85.53;94347.70;108599;1269;25495;-72
2023/11/04 21:15:43;;;;;;;11.80;7.20;;;;;;;4.62;85.50;94339.36;108627;1274;25373;-72
2023/11/04 21:18:15;;;;;;;11.40;6.90;;;;;;;4.63;85.38;94329.21;108616;1274;25357;-72
2023/11/04 21:20:47;;;;;;;13.40;7.30;;;;;;;4.67;85.52;94318.39;108638;1274;22522;-72
2023/11/04 21:23:18;;;;;;;13.30;7.50;;;;;;;4.71;85.59;94311.52;108586;1274;24252;-72
2023/11/04 21:25:53;;;;;;;12.30;7.40;;;;;;;4.74;85.45;94309.27;108656;1274;22544;-72
2023/11/04 21:28:24;;;;;;;10.40;5.90;;;;;;;4.81;85.67;94307.64;108645;1274;22595;-72
2023/11/04 21:30:58;;;;;;;11.70;7.30;;;;;;;4.84;85.34;94302.62;108635;1267;24265;-72
2023/11/04 21:33:29;;;;;;;10.80;6.60;;;;;;;4.85;85.36;94301.70;108537;1274;23347;-73
2023/11/04 21:36:00;;;;;;;10.60;6.80;;;;;;;4.86;85.28;94294.81;108664;1268;22524;-72
2023/11/04 21:38:32;;;;;;;12.80;7.20;;;;;;;4.85;85.25;94286.75;108606;1272;22539;-72
2023/11/04 21:41:04;;;;;;;10.40;6.60;;;;;;;4.82;85.17;94280.77;108602;1275;22586;-72
2023/11/04 21:43:35;;;;;;;11.30;6.80;;;;;;;4.78;85.13;94273.61;108631;1274;22569;-72
2023/11/04 21:46:08;;;;;;;13.20;7.00;;;;;;;4.72;84.75;94271.06;108644;1274;22544;-72
2023/11/04 21:48:40;;;;;;;11.20;7.10;;;;;;;4.62;84.56;94272.66;108631;1274;22564;-72
2023/11/04 21:51:11;;;;;;;12.80;7.10;;;;;;;4.50;84.34;94276.30;108579;1273;22588;-72
2023/11/04 21:53:42;;;;;;;14.20;8.20;;;;;;;4.39;84.14;94279.33;108666;1273;22556;-72
2023/11/04 21:56:15;;;;;;;10.90;6.90;;;;;;;4.28;84.20;94279.58;108611;1273;22559;-72
2023/11/04 21:58:46;;;;;;;11.60;7.20;;;;;;;4.21;84.40;94278.39;108657;1273;22524;-73
2023/11/04 22:01:17;;;;;;;9.60;6.20;;;;;;;4.23;84.88;94278.63;108615;1274;24474;-72
2023/11/04 22:03:48;;;;;;;9.30;5.50;;;;;;;4.28;84.95;94281.89;108564;1269;23815;-72
2023/11/04 22:06:20;;;;;;;11.50;6.60;;;;;;;4.29;85.05;94284.64;108620;1275;22531;-72
2023/11/04 22:08:51;;;;;;;10.20;5.80;;;;;;;4.23;84.64;94286.80;108677;1273;22928;-72
2023/11/04 22:11:23;;;;;;;10.00;6.80;;;;;;;4.07;84.62;94291.23;108601;1273;24458;-72
2023/11/04 22:13:54;;;;;;;10.80;6.80;;;;;;;4.08;85.09;94291.88;108671;1273;22523;-72
2023/11/04 22:16:25;;;;;;;10.60;6.50;;;;;;;4.12;85.34;94288.19;108661;1274;22546;-72
2023/11/04 22:18:57;;;;;;;10.30;6.20;;;;;;;4.10;85.04;94288.98;108671;1269;24257;-72
2023/11/04 22:21:29;;;;;;;12.10;7.00;;;;;;;4.09;85.19;94292.50;108568;1275;27928;-73
2023/11/04 22:24:03;;;;;;;10.80;6.20;;;;;;;3.92;84.47;94297.20;108675;1273;22523;-73
2023/11/04 22:26:35;;;;;;;7.10;4.90;;;;;;;3.65;84.33;94293.84;108601;1273;22945;-72
2023/11/04 22:29:06;;;;;;;10.50;6.10;;;;;;;3.45;84.66;94296.20;108665;1273;22611;-72
2023/11/04 22:31:38;;;;;;;10.50;5.50;;;;;;;3.34;84.99;94295.23;108498;1275;22623;-73
2023/11/04 22:34:09;;;;;;;11.00;5.90;;;;;;;3.28;85.36;94299.53;108487;1274;22527;-72
2023/11/04 22:36:40;;;;;;;9.40;5.90;;;;;;;3.28;85.71;94297.96;108540;1264;25040;-72
2023/11/04 22:39:12;;;;;;;9.60;5.60;;;;;;;3.35;86.32;94292.59;108520;1268;23551;-72
2023/11/04 22:41:43;;;;;;;9.70;5.60;;;;;;;3.53;86.56;94301.08;108603;1274;24482;-72
2023/11/04 22:44:16;;;;;;;10.20;5.30;;;;;;;3.66;86.66;94310.12;108638;1274;22547;-72
2023/11/04 22:46:47;;;;;;;8.60;5.30;;;;;;;3.70;86.40;94312.84;108688;1268;25284;-72
2023/11/04 22:49:18;;;;;;;9.20;5.60;;;;;;;3.68;86.19;94310.88;108671;1268;22606;-72
2023/11/04 22:51:49;;;;;;;9.10;5.30;;;;;;;3.65;86.03;94311.38;108609;1274;22628;-72
2023/11/04 22:54:20;;;;;;;10.30;5.40;;;;;;;3.62;85.81;94315.69;108633;1275;22529;-72
2023/11/04 22:56:51;;;;;;;9.60;5.80;;;;;;;3.60;85.86;94307.29;108672;1275;22565;-72
2023/11/04 22:59:25;;;;;;;8.40;5.40;;;;;;;3.59;85.91;94303.48;108655;1267;22630;-72
2023/11/04 23:01:56;;;;;;;10.50;6.00;;;;;;;3.60;86.01;94299.02;108578;1274;23838;-72
2023/11/04 23:04:27;;;;;;;10.10;6.00;;;;;;;3.59;85.96;94286.08;108638;1274;22528;-72
2023/11/04 23:06:58;;;;;;;10.80;5.70;;;;;;;3.58;85.84;94275.67;108653;1267;22605;-72
2023/11/04 23:09:30;;;;;;;7.80;4.60;;;;;;;3.58;85.98;94269.17;108611;1275;22530;-72
2023/11/04 23:12:01;;;;;;;9.80;5.50;;;;;;;3.61;86.02;94260.95;108597;1273;22534;-72
2023/11/04 23:14:32;;;;;;;10.00;5.40;;;;;;;3.61;85.88;94251.67;108676;1274;22530;-72
2023/11/04 23:17:03;;;;;;;10.30;6.20;;;;;;;3.59;85.63;94241.65;108618;1267;22547;-72
2023/11/04 23:19:34;;;;;;;8.10;5.30;;;;;;;3.57;85.74;94232.06;108629;1273;22580;-72
2023/11/04 23:22:05;;;;;;;9.60;5.50;;;;;;;3.54;85.65;94225.41;108586;1274;22551;-72
2023/11/04 23:24:36;;;;;;;8.70;5.30;;;;;;;3.53;85.52;94227.90;108622;1269;22518;-72
2023/11/04 23:27:07;;;;;;;7.60;4.90;;;;;;;3.51;85.43;94238.81;108641;1273;24269;-72
2023/11/04 23:29:38;;;;;;;9.70;5.30;;;;;;;3.44;85.16;94239.22;108628;1273;25418;-72